createdAt,value
2024-04-18T00:01:51.468Z,90.92
2024-04-18T00:06:54.492Z,90.70
2024-04-18T00:11:57.786Z,90.88
2024-04-18T00:17:23.284Z,91.21
2024-04-18T00:22:26.282Z,91.56
2024-04-18T00:27:38.782Z,91.85
2024-04-18T00:32:44.363Z,92.59
2024-04-18T00:38:16.749Z,92.52
2024-04-18T00:43:19.656Z,92.70
2024-04-18T00:48:31.135Z,93.06
2024-04-18T00:53:35.051Z,93.47
2024-04-18T00:58:57.051Z,93.33
2024-04-18T01:04:02.706Z,93.69
2024-04-18T01:09:18.111Z,93.99
2024-04-18T01:14:39.660Z,93.75
2024-04-18T01:19:46.224Z,93.82
2024-04-18T01:24:49.199Z,94.25
2024-04-18T01:29:54.762Z,94.38
2024-04-18T01:35:15.736Z,94.29
2024-04-18T01:40:24.684Z,94.89
2024-04-18T01:45:59.523Z,94.46
2024-04-18T01:51:04.087Z,94.36
2024-04-18T01:56:10.556Z,94.92
2024-04-18T02:01:30.902Z,94.78
2024-04-18T02:06:33.947Z,94.05
2024-04-18T02:11:56.831Z,94.15
2024-04-18T02:17:21.297Z,93.74
2024-04-18T02:22:39.538Z,93.88
2024-04-18T02:28:01.157Z,94.18
2024-04-18T02:33:07.044Z,93.85
2024-04-18T02:38:20.676Z,93.76
2024-04-18T02:43:23.586Z,95.02
2024-04-18T02:48:29.325Z,94.44
2024-04-18T02:53:49.581Z,94.03
2024-04-18T02:58:52.525Z,93.46
2024-04-18T03:03:58.110Z,92.66
2024-04-18T03:09:10.074Z,93.11
2024-04-18T03:14:28.872Z,93.20
2024-04-18T03:19:46.782Z,93.52
2024-04-18T03:25:10.061Z,93.15
2024-04-18T03:30:32.924Z,93.63
2024-04-18T03:35:47.788Z,93.31
2024-04-18T03:40:59.288Z,93.95
2024-04-18T03:46:03.549Z,94.30
2024-04-18T03:51:09.341Z,94.60
2024-04-18T03:56:30.976Z,94.09
2024-04-18T04:01:36.336Z,94.47
2024-04-18T04:06:41.891Z,96.40
2024-04-18T04:11:44.778Z,95.13
2024-04-18T04:16:47.739Z,93.73
2024-04-18T04:21:56.717Z,93.55
2024-04-18T04:26:59.627Z,93.35
2024-04-18T04:32:02.624Z,92.97
2024-04-18T04:37:08.169Z,93.35
2024-04-18T04:42:11.138Z,93.09
2024-04-18T04:47:14.199Z,92.97
2024-04-18T04:52:26.505Z,92.98
2024-04-18T04:57:29.566Z,92.73
2024-04-18T05:02:52.595Z,92.22
2024-04-18T05:07:58.142Z,91.87
2024-04-18T05:13:16.819Z,91.85
2024-04-18T05:18:19.813Z,90.80
2024-04-18T05:23:25.351Z,89.47
2024-04-18T05:28:42.201Z,89.64
2024-04-18T05:33:45.238Z,89.43
2024-04-18T05:38:50.774Z,89.22
2024-04-18T05:43:54.199Z,88.52
2024-04-18T05:48:57.240Z,86.84
2024-04-18T05:54:02.836Z,86.25
2024-04-18T05:59:05.750Z,84.51
2024-04-18T06:04:08.770Z,83.02
2024-04-18T06:09:14.311Z,82.41
2024-04-18T06:14:17.275Z,80.71
2024-04-18T06:19:20.164Z,78.89
2024-04-18T06:24:26.349Z,78.38
2024-04-18T06:29:30.579Z,77.52
2024-04-18T06:34:33.600Z,77.11
2024-04-18T06:39:39.495Z,76.10
2024-04-18T06:44:42.449Z,75.82
2024-04-18T06:49:45.386Z,75.73
2024-04-18T06:54:50.969Z,75.42
2024-04-18T07:00:15.053Z,75.58
2024-04-18T07:05:18.273Z,74.78
2024-04-18T07:10:26.902Z,74.63
2024-04-18T07:15:29.917Z,74.43
2024-04-18T07:20:59.624Z,72.35
2024-04-18T07:26:14.692Z,73.29
2024-04-18T07:31:18.755Z,72.94
2024-04-18T07:36:41.686Z,72.47
2024-04-18T07:41:47.171Z,72.42
2024-04-18T07:46:50.889Z,73.00
2024-04-18T07:51:53.894Z,73.85
2024-04-18T07:57:02.810Z,72.07
2024-04-18T08:02:07.809Z,71.21
2024-04-18T08:07:15.035Z,72.79
2024-04-18T08:12:27.044Z,72.01
2024-04-18T08:17:32.954Z,71.78
2024-04-18T08:22:36.082Z,71.81
2024-04-18T08:27:41.656Z,70.29
2024-04-18T08:32:44.716Z,70.44
2024-04-18T08:37:47.646Z,68.03
2024-04-18T08:42:53.837Z,66.82
2024-04-18T08:47:59.833Z,64.17
2024-04-18T08:53:04.546Z,65.13
2024-04-18T08:58:13.222Z,60.96
2024-04-18T09:03:16.530Z,60.32
2024-04-18T09:08:19.604Z,57.65
2024-04-18T09:13:26.259Z,56.70
2024-04-18T09:18:33.968Z,53.48
2024-04-18T09:23:36.995Z,54.39
2024-04-18T09:28:42.470Z,56.54
2024-04-18T09:33:46.912Z,55.61
2024-04-18T09:38:51.406Z,53.00
2024-04-18T09:44:08.507Z,51.48
2024-04-18T09:49:13.586Z,46.89
2024-04-18T09:54:17.109Z,47.72
2024-04-18T09:59:25.115Z,49.34
2024-04-18T10:04:28.538Z,50.95
2024-04-18T10:09:32.442Z,52.45
2024-04-18T10:14:40.315Z,51.70
2024-04-18T10:19:49.093Z,51.48
2024-04-18T10:24:53.833Z,51.40
2024-04-18T10:30:01.404Z,50.78
2024-04-18T10:35:04.483Z,50.13
2024-04-18T10:40:08.897Z,47.39
2024-04-18T10:45:15.004Z,46.28
2024-04-18T10:50:19.139Z,47.67
2024-04-18T10:55:22.049Z,47.71
2024-04-18T11:00:28.403Z,50.56
2024-04-18T11:05:31.587Z,45.21
2024-04-18T11:10:36.708Z,46.04
2024-04-18T11:15:42.301Z,48.00
2024-04-18T11:20:46.234Z,47.09
2024-04-18T11:25:49.884Z,47.86
2024-04-18T11:30:55.428Z,46.40
2024-04-18T11:35:59.207Z,47.10
2024-04-18T11:41:02.131Z,45.64
2024-04-18T11:46:07.957Z,44.99
2024-04-18T11:51:10.872Z,45.10
2024-04-18T11:56:14.099Z,44.31
2024-04-18T12:01:19.679Z,44.20
2024-04-18T12:06:22.638Z,44.66
2024-04-18T12:11:26.914Z,41.98
2024-04-18T12:16:49.304Z,42.34
2024-04-18T12:21:52.269Z,42.50
2024-04-18T12:26:55.164Z,42.48
2024-04-18T12:32:01.237Z,43.64
2024-04-18T12:37:05.404Z,42.59
2024-04-18T12:42:11.283Z,44.17
2024-04-18T12:47:16.878Z,44.00
2024-04-18T12:52:22.537Z,42.27
2024-04-18T12:57:27.004Z,41.25
2024-04-18T13:02:41.825Z,38.96
2024-04-18T13:07:44.820Z,38.30
2024-04-18T13:12:56.855Z,38.76
2024-04-18T13:18:11.459Z,38.17
2024-04-18T13:23:32.965Z,38.25
2024-04-18T13:28:35.956Z,39.50
2024-04-18T13:33:57.482Z,39.55
2024-04-18T13:39:01.387Z,40.96
2024-04-18T13:44:10.466Z,41.52
2024-04-18T13:49:19.922Z,41.05
2024-04-18T13:54:29.201Z,36.98
2024-04-18T13:59:32.165Z,37.71
2024-04-18T14:04:37.696Z,39.12
2024-04-18T14:09:56.142Z,38.57
2024-04-18T14:15:29.648Z,38.74
2024-04-18T14:20:56.652Z,40.36
2024-04-18T14:26:00.192Z,41.20
2024-04-18T14:31:03.802Z,39.61
2024-04-18T14:36:24.485Z,41.90
2024-04-18T14:41:27.460Z,42.25
2024-04-18T14:46:30.541Z,42.71
2024-04-18T14:51:56.218Z,42.79
2024-04-18T14:57:01.994Z,42.31
2024-04-18T15:02:24.169Z,42.66
2024-04-18T15:07:39.509Z,41.47
2024-04-18T15:12:53.169Z,39.71
2024-04-18T15:17:59.543Z,38.95
2024-04-18T15:23:05.102Z,37.60
2024-04-18T15:28:08.828Z,37.30
2024-04-18T15:33:11.768Z,35.82
2024-04-18T15:38:20.706Z,35.29
2024-04-18T15:43:42.087Z,36.33
2024-04-18T15:49:05.143Z,37.11
2024-04-18T15:54:10.854Z,37.92
2024-04-18T15:59:13.785Z,37.61
2024-04-18T16:04:27.241Z,38.98
2024-04-18T16:09:39.066Z,36.50
2024-04-18T16:14:57.342Z,36.04
2024-04-18T16:20:00.382Z,37.20
2024-04-18T16:25:16.505Z,36.51
2024-04-18T16:30:20.765Z,35.62
2024-04-18T16:35:23.844Z,36.51
2024-04-18T16:40:47.876Z,36.88
2024-04-18T16:46:05.288Z,36.05
2024-04-18T16:51:08.626Z,34.93
2024-04-18T16:56:32.613Z,32.24
2024-04-18T17:01:35.622Z,30.78
2024-04-18T17:06:45.697Z,30.51
2024-04-18T17:11:54.048Z,31.39
2024-04-18T17:17:16.057Z,33.02
2024-04-18T17:22:31.266Z,35.19
2024-04-18T17:27:36.859Z,35.95
2024-04-18T17:32:41.015Z,37.62
2024-04-18T17:38:00.247Z,38.64
2024-04-18T17:43:25.734Z,39.67
2024-04-18T17:48:32.927Z,41.00
2024-04-18T17:53:36.065Z,42.67
2024-04-18T17:58:41.627Z,43.41
2024-04-18T18:03:44.684Z,43.71
2024-04-18T18:08:48.714Z,44.32
2024-04-18T18:14:03.666Z,45.36
2024-04-18T18:19:25.587Z,45.99
2024-04-18T18:24:37.343Z,47.42
2024-04-18T18:29:43.802Z,46.41
2024-04-18T18:34:48.760Z,47.97
2024-04-18T18:39:51.798Z,48.11
2024-04-18T18:44:57.387Z,48.28
2024-04-18T18:50:00.407Z,48.46
2024-04-18T18:55:03.424Z,49.43
2024-04-18T19:00:10.299Z,49.15
2024-04-18T19:05:13.524Z,50.13
2024-04-18T19:10:17.239Z,51.70
2024-04-18T19:15:22.982Z,51.81
2024-04-18T19:20:26.592Z,54.56
2024-04-18T19:25:29.980Z,55.08
2024-04-18T19:30:35.613Z,56.05
2024-04-18T19:35:38.534Z,57.59
2024-04-18T19:40:41.586Z,57.21
2024-04-18T19:45:57.064Z,59.20
2024-04-18T19:51:00.232Z,59.48
2024-04-18T19:56:03.157Z,60.20
2024-04-18T20:01:08.747Z,60.35
2024-04-18T20:06:11.763Z,62.08
2024-04-18T20:11:28.107Z,63.60
2024-04-18T20:16:33.660Z,64.83
2024-04-18T20:21:48.606Z,66.42
2024-04-18T20:26:51.590Z,67.27
2024-04-18T20:32:18.054Z,68.75
2024-04-18T20:37:21.522Z,70.18
2024-04-18T20:42:24.575Z,70.79
2024-04-18T20:47:39.186Z,71.33
2024-04-18T20:52:42.131Z,71.92
2024-04-18T20:57:45.101Z,72.75
2024-04-18T21:02:50.689Z,73.31
2024-04-18T21:07:53.745Z,73.46
2024-04-18T21:12:56.812Z,72.71
2024-04-18T21:18:02.429Z,72.08
2024-04-18T21:23:05.591Z,71.78
2024-04-18T21:28:08.996Z,70.99
2024-04-18T21:33:14.689Z,71.40
2024-04-18T21:38:17.865Z,71.48
2024-04-18T21:43:21.320Z,70.81
2024-04-18T21:48:27.502Z,70.65
2024-04-18T21:53:31.185Z,70.76
2024-04-18T21:58:34.194Z,71.04
2024-04-18T22:03:39.860Z,70.24
2024-04-18T22:08:42.948Z,69.95
2024-04-18T22:13:46.940Z,67.09
2024-04-18T22:18:52.653Z,63.92
2024-04-18T22:24:10.993Z,63.73
2024-04-18T22:29:14.055Z,61.75
2024-04-18T22:34:27.774Z,60.14
2024-04-18T22:39:34.488Z,60.93
2024-04-18T22:44:37.570Z,60.39
2024-04-18T22:49:43.153Z,61.17
2024-04-18T22:54:46.236Z,63.07
2024-04-18T22:59:51.971Z,65.38
2024-04-18T23:04:57.828Z,64.05
2024-04-18T23:10:00.907Z,62.71
2024-04-18T23:15:03.909Z,62.69
2024-04-18T23:20:11.554Z,63.44
2024-04-18T23:25:14.662Z,62.51
2024-04-18T23:30:17.788Z,62.59
2024-04-18T23:35:23.596Z,64.91
2024-04-18T23:40:26.632Z,66.25
2024-04-18T23:45:29.715Z,68.18
2024-04-18T23:50:35.350Z,69.50
2024-04-18T23:55:38.358Z,70.70
